Time;durP1;ratioP1;P1;durP2;ratioP2;P2;SDS_P1;SDS_P2;PMS_P1;PMS_P2;Temp;Humidity;BMP_temperature;BMP_pressure;BME280_temperature;BME280_humidity;BME280_pressure;Samples;Min_cycle;Max_cycle;Signal;HPM_P1;HPM_P2
2021/06/30 00:02:01;;;;;;;;;;;26.80;97.80;;;;;;1892311;75;20425;-90
2021/06/30 00:04:30;;;;;;;;;;;26.80;97.60;;;;;;1893462;74;20252;-90
2021/06/30 00:06:59;;;;;;;;;;;26.80;97.60;;;;;;1903140;74;20271;-89
2021/06/30 00:09:29;;;;;;;;;;;26.90;97.50;;;;;;1876225;74;20154;-90
2021/06/30 00:12:00;;;;;;;;;;;26.90;97.50;;;;;;1908553;73;20200;-88
2021/06/30 00:14:32;;;;;;;;;;;26.90;97.50;;;;;;1843980;76;20209;-89
2021/06/30 00:17:09;;;;;;;;;;;27.00;97.50;;;;;;1890317;75;20161;-89
2021/06/30 00:19:41;;;;;;;;;;;27.10;97.50;;;;;;1851120;75;20162;-89
2021/06/30 00:22:20;;;;;;;;;;;27.10;97.30;;;;;;1827927;76;20231;-89
2021/06/30 00:24:49;;;;;;;;;;;27.10;97.10;;;;;;1874526;73;20205;-90
2021/06/30 00:27:22;;;;;;;;;;;27.20;97.00;;;;;;1916662;73;20132;-90
2021/06/30 00:29:51;;;;;;;;;;;27.20;97.10;;;;;;1898368;74;20167;-91
2021/06/30 00:32:21;;;;;;;;;;;27.20;97.00;;;;;;1900277;73;20191;-91
2021/06/30 00:34:50;;;;;;;;;;;27.20;97.00;;;;;;1886931;73;20205;-90
2021/06/30 00:37:20;;;;;;;;;;;27.30;96.80;;;;;;1905411;73;20506;-88
2021/06/30 00:39:50;;;;;;;;;;;27.30;96.70;;;;;;1898854;75;20149;-88
2021/06/30 00:42:19;;;;;;;;;;;27.30;96.70;;;;;;1883109;75;20218;-89
2021/06/30 00:44:49;;;;;;;;;;;27.40;96.50;;;;;;1897276;74;20214;-92
2021/06/30 00:47:21;;;;;;;;;;;27.40;96.30;;;;;;1883457;75;20173;-92
2021/06/30 00:49:50;;;;;;;;;;;27.50;96.20;;;;;;1902429;74;20398;-90
2021/06/30 00:52:19;;;;;;;;;;;27.50;96.00;;;;;;1892218;75;20190;-89
2021/06/30 00:54:49;;;;;;;;;;;27.60;96.00;;;;;;1901635;74;20199;-89
2021/06/30 00:57:18;;;;;;;;;;;27.60;96.10;;;;;;1894201;74;20609;-90
2021/06/30 00:59:48;;;;;;;;;;;27.70;96.00;;;;;;1913641;74;20200;-88
2021/06/30 01:02:18;;;;;;;;;;;27.80;95.60;;;;;;1896393;74;20456;-90
2021/06/30 01:04:48;;;;;;;;;;;27.80;95.40;;;;;;1902314;74;20128;-91
2021/06/30 01:07:18;;;;;;;;;;;27.90;95.30;;;;;;1880947;75;20111;-90
2021/06/30 01:09:47;;;;;;;;;;;28.00;95.40;;;;;;1901765;74;20132;-91
2021/06/30 01:12:17;;;;;;;;;;;28.00;95.40;;;;;;1892911;74;20185;-91
2021/06/30 01:14:49;;;;;;;;;;;28.10;95.00;;;;;;1893912;74;20208;-90
2021/06/30 01:17:20;;;;;;;;;;;28.20;95.10;;;;;;1904283;74;20142;-89
2021/06/30 01:19:50;;;;;;;;;;;28.20;94.60;;;;;;1897086;74;20180;-88
2021/06/30 01:22:19;;;;;;;;;;;28.30;94.50;;;;;;1902903;74;20189;-90
2021/06/30 01:24:50;;;;;;;;;;;28.40;94.40;;;;;;1901476;74;20201;-90
2021/06/30 01:27:25;;;;;;;;;;;28.40;94.20;;;;;;1891520;74;20123;-90
2021/06/30 01:29:54;;;;;;;;;;;28.50;94.20;;;;;;1883997;75;20142;-91
2021/06/30 01:32:25;;;;;;;;;;;28.60;93.70;;;;;;1915822;75;20181;-91
2021/06/30 01:34:54;;;;;;;;;;;28.60;93.60;;;;;;1903997;74;20145;-91
2021/06/30 01:37:24;;;;;;;;;;;28.70;93.60;;;;;;1894478;74;20114;-89
2021/06/30 01:39:59;;;;;;;;;;;28.80;93.20;;;;;;1902550;74;20220;-88
2021/06/30 01:42:28;;;;;;;;;;;28.80;93.20;;;;;;1905578;75;20189;-91
2021/06/30 01:45:07;;;;;;;;;;;29.00;93.00;;;;;;1906865;74;20227;-92
2021/06/30 01:47:37;;;;;;;;;;;29.10;93.00;;;;;;1895500;74;20119;-92
2021/06/30 01:50:12;;;;;;;;;;;29.20;92.60;;;;;;1896304;74;20220;-92
2021/06/30 01:52:42;;;;;;;;;;;29.30;92.40;;;;;;1900361;74;20256;-92
2021/06/30 01:55:12;;;;;;;;;;;29.40;92.10;;;;;;1895550;73;20178;-91
2021/06/30 01:57:43;;;;;;;;;;;29.50;91.80;;;;;;1925779;73;20116;-92
2021/06/30 02:00:14;;;;;;;;;;;29.60;91.50;;;;;;1903063;73;20883;-91
2021/06/30 02:02:47;;;;;;;;;;;29.70;91.70;;;;;;1909090;72;20241;-87
2021/06/30 02:05:18;;;;;;;;;;;29.80;91.70;;;;;;1924375;73;20449;-90
2021/06/30 02:07:51;;;;;;;;;;;29.90;91.30;;;;;;1921183;73;20268;-91
2021/06/30 02:10:22;;;;;;;;;;;30.00;91.00;;;;;;1900747;74;20117;-94
2021/06/30 02:12:53;;;;;;;;;;;30.00;90.80;;;;;;1908007;74;20158;-92
2021/06/30 02:15:28;;;;;;;;;;;30.10;90.60;;;;;;1907297;73;20657;-87
2021/06/30 02:17:58;;;;;;;;;;;30.10;90.30;;;;;;1920335;73;20189;-87
2021/06/30 02:20:29;;;;;;;;;;;30.20;90.40;;;;;;1906407;74;20213;-76
2021/06/30 02:22:59;;;;;;;;;;;30.20;90.20;;;;;;1930750;73;20206;-78
2021/06/30 02:25:29;;;;;;;;;;;30.10;90.20;;;;;;1931578;74;20149;-77
2021/06/30 02:28:01;;;;;;;;;;;30.10;90.00;;;;;;1914031;73;20286;-78
2021/06/30 02:30:32;;;;;;;;;;;30.20;89.70;;;;;;1897921;73;20261;-79
2021/06/30 02:33:07;;;;;;;;;;;30.30;90.00;;;;;;1913603;72;20169;-78
2021/06/30 02:35:37;;;;;;;;;;;30.40;89.70;;;;;;1922462;73;20638;-79
2021/06/30 02:38:07;;;;;;;;;;;30.40;89.40;;;;;;1858642;75;20129;-78
2021/06/30 02:40:36;;;;;;;;;;;30.50;89.30;;;;;;1845930;75;20221;-79
2021/06/30 02:43:14;;;;;;;;;;;30.60;89.10;;;;;;1855373;75;21054;-79
2021/06/30 02:45:56;;;;;;;;;;;30.70;88.10;;;;;;1837310;75;20236;-78
2021/06/30 02:48:15;;;;;;;;;;;30.70;87.70;;;;;;1853162;75;20129;-78
2021/06/30 02:50:44;;;;;;;;;;;30.80;88.20;;;;;;1884706;74;20206;-77
2021/06/30 02:53:17;;;;;;;;;;;30.80;88.20;;;;;;1861896;74;20208;-78
2021/06/30 02:55:46;;;;;;;;;;;30.90;87.40;;;;;;1891858;74;20250;-79
2021/06/30 02:58:17;;;;;;;;;;;30.90;87.00;;;;;;1860859;74;20238;-78
2021/06/30 03:00:49;;;;;;;;;;;31.00;87.00;;;;;;1863362;75;20188;-79
2021/06/30 03:03:17;;;;;;;;;;;31.00;86.40;;;;;;1907087;73;20168;-78
2021/06/30 03:05:49;;;;;;;;;;;31.00;86.90;;;;;;1908677;73;20209;-79
2021/06/30 03:08:19;;;;;;;;;;;31.10;87.00;;;;;;1914000;74;20247;-77
2021/06/30 03:10:49;;;;;;;;;;;31.30;85.90;;;;;;1909310;73;20209;-78
2021/06/30 03:13:18;;;;;;;;;;;31.30;86.40;;;;;;1910957;74;20217;-78
2021/06/30 03:15:52;;;;;;;;;;;31.40;85.80;;;;;;1885846;73;20237;-79
2021/06/30 03:18:19;;;;;;;;;;;31.50;85.20;;;;;;1896985;73;20240;-79
2021/06/30 03:20:51;;;;;;;;;;;31.50;84.30;;;;;;1896833;74;20270;-78
2021/06/30 03:23:27;;;;;;;;;;;31.50;85.10;;;;;;1905006;74;20193;-78
2021/06/30 03:25:55;;;;;;;;;;;31.60;84.90;;;;;;1860323;74;20271;-79
2021/06/30 03:28:26;;;;;;;;;;;31.60;83.50;;;;;;1877912;75;20189;-78
2021/06/30 03:30:59;;;;;;;;;;;31.70;83.40;;;;;;1899991;74;20445;-78
2021/06/30 03:33:29;;;;;;;;;;;31.80;83.30;;;;;;1910821;74;20218;-78
2021/06/30 03:36:04;;;;;;;;;;;31.80;83.20;;;;;;1925697;74;20215;-77
2021/06/30 03:38:30;;;;;;;;;;;31.90;81.80;;;;;;1911142;74;20161;-79
2021/06/30 03:41:02;;;;;;;;;;;32.00;81.30;;;;;;1914879;74;20226;-77
2021/06/30 03:43:35;;;;;;;;;;;32.00;81.80;;;;;;1891078;74;20133;-78
2021/06/30 03:46:05;;;;;;;;;;;32.10;80.60;;;;;;1903610;74;20215;-77
2021/06/30 03:48:36;;;;;;;;;;;32.10;80.20;;;;;;1913464;74;20173;-78
2021/06/30 03:51:06;;;;;;;;;;;32.10;80.60;;;;;;1912074;74;20181;-76
2021/06/30 03:53:36;;;;;;;;;;;32.20;81.10;;;;;;1915542;74;20204;-78
2021/06/30 03:56:06;;;;;;;;;;;32.20;81.40;;;;;;1899593;74;20225;-76
2021/06/30 03:58:35;;;;;;;;;;;32.20;81.60;;;;;;1916383;73;20502;-77
2021/06/30 04:01:08;;;;;;;;;;;32.20;80.70;;;;;;1913157;73;20160;-78
2021/06/30 04:03:43;;;;;;;;;;;32.20;81.00;;;;;;1940312;72;20217;-77
2021/06/30 04:06:16;;;;;;;;;;;32.30;80.90;;;;;;1911907;73;20191;-77
2021/06/30 04:08:49;;;;;;;;;;;32.30;79.70;;;;;;1911887;73;20278;-75
2021/06/30 04:11:24;;;;;;;;;;;32.40;78.90;;;;;;1918374;73;20283;-77
2021/06/30 04:13:53;;;;;;;;;;;32.40;78.00;;;;;;1880650;73;20492;-76
2021/06/30 04:16:29;;;;;;;;;;;32.50;79.70;;;;;;1855826;75;20116;-76
2021/06/30 04:18:54;;;;;;;;;;;;;;;;;;1852327;76;20239;-76
2021/06/30 04:21:24;;;;;;;;;;;32.60;77.70;;;;;;1860054;75;20208;-77
2021/06/30 04:23:56;;;;;;;;;;;32.60;78.10;;;;;;1856335;75;20193;-76
2021/06/30 04:26:26;;;;;;;;;;;32.60;78.20;;;;;;1830122;76;20414;-77
2021/06/30 04:28:57;;;;;;;;;;;32.60;77.20;;;;;;1848643;75;20142;-77
2021/06/30 04:31:27;;;;;;;;;;;32.60;78.10;;;;;;1890496;74;20221;-77
2021/06/30 04:33:57;;;;;;;;;;;32.70;78.40;;;;;;1856813;74;20138;-76
2021/06/30 04:36:28;;;;;;;;;;;32.70;78.40;;;;;;1866544;75;20454;-76
2021/06/30 04:39:00;;;;;;;;;;;32.70;78.70;;;;;;1862703;75;20180;-79
2021/06/30 04:41:30;;;;;;;;;;;32.80;77.80;;;;;;1855894;75;20187;-74
2021/06/30 04:44:00;;;;;;;;;;;32.80;78.30;;;;;;1853230;75;20218;-78
2021/06/30 04:46:30;;;;;;;;;;;32.90;77.60;;;;;;1868219;75;20446;-76
2021/06/30 04:49:00;;;;;;;;;;;33.00;77.40;;;;;;1867085;74;20121;-76
2021/06/30 04:51:29;;;;;;;;;;;33.10;76.90;;;;;;1887992;75;20170;-77
2021/06/30 04:53:59;;;;;;;;;;;33.10;77.70;;;;;;1859470;75;20313;-79
2021/06/30 04:56:39;;;;;;;;;;;33.10;75.80;;;;;;1858149;75;20158;-77
2021/06/30 04:59:00;;;;;;;;;;;33.00;76.50;;;;;;1872380;74;20203;-76
2021/06/30 05:01:30;;;;;;;;;;;33.00;74.30;;;;;;1835403;76;20213;-77
2021/06/30 05:03:59;;;;;;;;;;;33.00;74.10;;;;;;1854021;75;20489;-78
2021/06/30 05:06:29;;;;;;;;;;;33.10;74.00;;;;;;1865527;75;20475;-76
2021/06/30 05:08:58;;;;;;;;;;;33.00;74.30;;;;;;1887381;75;20241;-77
2021/06/30 05:11:29;;;;;;;;;;;33.10;73.90;;;;;;1886595;74;20472;-76
2021/06/30 05:13:59;;;;;;;;;;;33.10;74.40;;;;;;1872191;74;20127;-78
2021/06/30 05:16:28;;;;;;;;;;;33.20;73.20;;;;;;1872740;74;20491;-78
2021/06/30 05:18:58;;;;;;;;;;;33.30;73.30;;;;;;1849575;74;20253;-75
2021/06/30 05:21:27;;;;;;;;;;;33.50;72.00;;;;;;1873708;74;20758;-77
2021/06/30 05:23:57;;;;;;;;;;;33.60;72.50;;;;;;1858204;75;20251;-76
2021/06/30 05:26:26;;;;;;;;;;;33.70;71.10;;;;;;1852110;75;20460;-77
2021/06/30 05:28:56;;;;;;;;;;;33.90;69.40;;;;;;1857314;75;20241;-76
2021/06/30 05:31:26;;;;;;;;;;;33.90;70.90;;;;;;1894789;73;20283;-77
2021/06/30 05:33:55;;;;;;;;;;;33.90;70.20;;;;;;1829219;76;20206;-77
2021/06/30 05:36:27;;;;;;;;;;;33.90;70.40;;;;;;1894305;74;20295;-76
2021/06/30 05:38:56;;;;;;;;;;;33.90;69.70;;;;;;1895998;74;20193;-77
2021/06/30 05:41:25;;;;;;;;;;;34.00;69.40;;;;;;1903936;74;20221;-78
2021/06/30 05:43:58;;;;;;;;;;;33.90;67.40;;;;;;1892310;74;20156;-77
2021/06/30 05:46:31;;;;;;;;;;;33.90;68.90;;;;;;1883834;75;20503;-76
2021/06/30 05:49:12;;;;;;;;;;;33.90;70.50;;;;;;1909315;73;20190;-77
2021/06/30 05:51:41;;;;;;;;;;;33.90;69.50;;;;;;1892235;75;20260;-76
2021/06/30 05:54:18;;;;;;;;;;;33.90;67.40;;;;;;1887888;75;20193;-75
2021/06/30 05:57:09;;;;;;;;;;;33.90;67.30;;;;;;1906465;73;20213;-77
2021/06/30 06:02:29;;;;;;;;;;;33.90;69.50;;;;;;1830027;76;20232;-77
2021/06/30 06:04:59;;;;;;;;;;;34.00;68.30;;;;;;1833739;77;20199;-76
2021/06/30 06:07:29;;;;;;;;;;;34.00;67.60;;;;;;1868885;76;20504;-76
2021/06/30 06:09:59;;;;;;;;;;;34.10;67.20;;;;;;1856050;75;20535;-77
2021/06/30 06:12:28;;;;;;;;;;;34.00;67.70;;;;;;1894220;75;20196;-77
2021/06/30 06:14:57;;;;;;;;;;;34.00;67.20;;;;;;1871505;75;20176;-76
2021/06/30 06:17:27;;;;;;;;;;;34.00;67.20;;;;;;1878815;76;20157;-76
2021/06/30 06:19:57;;;;;;;;;;;33.90;67.20;;;;;;1865009;75;20203;-76
2021/06/30 06:22:27;;;;;;;;;;;33.90;68.10;;;;;;1885839;75;20240;-77
2021/06/30 06:24:56;;;;;;;;;;;34.00;67.50;;;;;;1883382;75;20177;-76
2021/06/30 06:27:26;;;;;;;;;;;34.10;67.40;;;;;;1884604;75;20125;-76
2021/06/30 06:29:55;;;;;;;;;;;34.00;67.90;;;;;;1871850;75;20247;-76
2021/06/30 06:32:25;;;;;;;;;;;33.90;67.10;;;;;;1867347;75;20138;-77
2021/06/30 06:34:55;;;;;;;;;;;33.90;68.60;;;;;;1840593;76;20174;-76
2021/06/30 06:37:25;;;;;;;;;;;33.80;68.50;;;;;;1882464;75;20241;-76
2021/06/30 06:39:54;;;;;;;;;;;33.70;68.00;;;;;;1874197;74;20557;-77
2021/06/30 06:42:24;;;;;;;;;;;33.60;69.80;;;;;;1806801;76;20208;-76
2021/06/30 06:44:53;;;;;;;;;;;33.60;68.50;;;;;;1860239;75;20578;-77
2021/06/30 06:47:23;;;;;;;;;;;33.60;67.70;;;;;;1857611;75;20427;-77
2021/06/30 06:49:53;;;;;;;;;;;33.50;67.90;;;;;;1871929;75;20157;-77
2021/06/30 06:52:22;;;;;;;;;;;33.50;67.50;;;;;;1884459;75;20273;-76
2021/06/30 06:54:59;;;;;;;;;;;33.50;67.80;;;;;;1880233;74;20459;-78
2021/06/30 06:57:28;;;;;;;;;;;33.40;68.10;;;;;;1873211;75;20275;-78
2021/06/30 06:59:58;;;;;;;;;;;33.50;68.50;;;;;;1830168;76;20156;-76
2021/06/30 07:02:28;;;;;;;;;;;33.40;69.30;;;;;;1845668;76;20216;-79
2021/06/30 07:04:57;;;;;;;;;;;33.40;69.00;;;;;;1910516;74;20602;-78
2021/06/30 07:07:27;;;;;;;;;;;33.40;69.70;;;;;;1924311;72;20534;-79
2021/06/30 07:09:59;;;;;;;;;;;33.40;70.60;;;;;;1907470;72;20255;-78
2021/06/30 07:12:27;;;;;;;;;;;33.30;71.10;;;;;;1861837;74;20125;-78
2021/06/30 07:14:58;;;;;;;;;;;33.20;72.50;;;;;;1860496;75;20166;-78
2021/06/30 07:17:31;;;;;;;;;;;33.20;72.00;;;;;;1858344;75;20172;-81
2021/06/30 07:19:59;;;;;;;;;;;33.10;72.30;;;;;;1858030;75;20188;-80
2021/06/30 07:22:32;;;;;;;;;;;33.00;73.10;;;;;;1858338;76;20193;-79
2021/06/30 07:25:02;;;;;;;;;;;32.90;74.00;;;;;;1867981;75;20272;-78
2021/06/30 07:27:32;;;;;;;;;;;32.80;73.70;;;;;;1865869;76;20164;-79
2021/06/30 07:30:01;;;;;;;;;;;32.80;75.80;;;;;;1853880;75;20118;-76
2021/06/30 07:32:35;;;;;;;;;;;32.60;79.70;;;;;;1861914;75;20321;-79
2021/06/30 07:35:04;;;;;;;;;;;32.20;83.30;;;;;;1850770;75;20167;-78
2021/06/30 07:37:35;;;;;;;;;;;31.80;86.70;;;;;;1842945;76;20253;-78
2021/06/30 07:40:05;;;;;;;;;;;31.30;86.70;;;;;;1846022;76;20264;-79
2021/06/30 07:42:36;;;;;;;;;;;31.00;88.00;;;;;;1817678;76;20229;-79
2021/06/30 07:45:06;;;;;;;;;;;30.90;89.00;;;;;;1853612;74;20206;-78
2021/06/30 07:47:39;;;;;;;;;;;30.70;90.10;;;;;;1865697;75;20238;-79
2021/06/30 07:50:10;;;;;;;;;;;30.60;91.10;;;;;;1846460;76;20296;-81
2021/06/30 07:52:41;;;;;;;;;;;30.50;91.10;;;;;;1864042;75;20192;-78
2021/06/30 07:55:17;;;;;;;;;;;30.40;91.50;;;;;;1844734;75;20260;-78
2021/06/30 07:57:58;;;;;;;;;;;30.30;91.10;;;;;;1856115;75;20174;-80
2021/06/30 08:00:37;;;;;;;;;;;30.30;92.00;;;;;;1875975;75;20192;-77
2021/06/30 08:03:10;;;;;;;;;;;30.30;91.50;;;;;;1886757;74;20123;-76
2021/06/30 08:05:41;;;;;;;;;;;30.20;91.50;;;;;;1876811;75;20232;-76
2021/06/30 08:08:10;;;;;;;;;;;30.20;91.80;;;;;;1866066;75;20307;-74
2021/06/30 08:10:41;;;;;;;;;;;30.30;92.50;;;;;;1873807;74;20178;-77
2021/06/30 08:13:10;;;;;;;;;;;30.30;92.20;;;;;;1873676;74;20249;-78
2021/06/30 08:15:44;;;;;;;;;;;30.20;92.90;;;;;;1898605;74;20263;-76
2021/06/30 08:18:15;;;;;;;;;;;30.20;92.40;;;;;;1901059;74;20221;-77
2021/06/30 08:20:50;;;;;;;;;;;30.20;92.10;;;;;;1892626;74;20153;-76
2021/06/30 08:23:19;;;;;;;;;;;30.30;92.30;;;;;;1893240;75;20206;-77
2021/06/30 08:25:48;;;;;;;;;;;30.30;92.60;;;;;;1884709;74;20170;-78
2021/06/30 08:28:24;;;;;;;;;;;30.40;92.00;;;;;;1893399;74;20154;-77
2021/06/30 08:30:52;;;;;;;;;;;30.40;91.40;;;;;;1889604;75;20198;-77
2021/06/30 08:33:22;;;;;;;;;;;30.50;91.80;;;;;;1890503;74;20165;-78
2021/06/30 08:35:54;;;;;;;;;;;30.50;92.10;;;;;;1909287;74;20276;-76
2021/06/30 08:38:23;;;;;;;;;;;30.50;91.50;;;;;;1890733;74;20208;-75
2021/06/30 08:40:54;;;;;;;;;;;30.50;91.60;;;;;;1892390;75;20468;-76
2021/06/30 08:43:25;;;;;;;;;;;30.50;91.50;;;;;;1899821;74;20158;-77
2021/06/30 08:45:56;;;;;;;;;;;30.50;91.60;;;;;;1895531;74;20189;-75
2021/06/30 08:48:30;;;;;;;;;;;30.50;91.60;;;;;;1887043;74;20195;-76
2021/06/30 08:51:02;;;;;;;;;;;30.50;91.70;;;;;;1916747;72;20182;-75
2021/06/30 08:53:32;;;;;;;;;;;30.50;91.40;;;;;;1921003;72;20124;-76
2021/06/30 08:56:02;;;;;;;;;;;30.50;91.30;;;;;;1903768;74;20165;-76
2021/06/30 08:58:32;;;;;;;;;;;30.50;91.40;;;;;;1932434;72;20181;-77
2021/06/30 09:01:03;;;;;;;;;;;30.50;91.30;;;;;;1941942;72;20207;-75
2021/06/30 09:03:40;;;;;;;;;;;30.50;91.50;;;;;;1900116;73;20267;-75
2021/06/30 09:07:14;;;;;;;;;;;30.50;91.60;;;;;;1893406;74;20127;-74
2021/06/30 09:08:53;;;;;;;;;;;30.50;91.30;;;;;;1904917;72;20166;-76
2021/06/30 09:11:25;;;;;;;;;;;30.50;91.60;;;;;;1918070;73;20200;-75
2021/06/30 09:13:56;;;;;;;;;;;30.50;91.20;;;;;;1900532;73;20149;-77
2021/06/30 09:16:27;;;;;;;;;;;30.50;91.10;;;;;;1897265;72;20154;-78
2021/06/30 09:19:00;;;;;;;;;;;30.60;90.80;;;;;;1912270;73;20536;-77
2021/06/30 09:21:31;;;;;;;;;;;30.60;91.00;;;;;;1910944;73;20177;-78
2021/06/30 09:24:03;;;;;;;;;;;30.50;91.20;;;;;;1893167;72;20186;-76
2021/06/30 09:26:35;;;;;;;;;;;30.60;91.20;;;;;;1898180;73;20210;-76
2021/06/30 09:29:23;;;;;;;;;;;30.60;91.30;;;;;;1907824;72;20455;-77
2021/06/30 09:31:54;;;;;;;;;;;30.60;91.30;;;;;;1930021;73;20497;-76
2021/06/30 09:34:24;;;;;;;;;;;30.60;91.30;;;;;;1956602;72;20130;-76
2021/06/30 09:37:01;;;;;;;;;;;30.60;91.20;;;;;;1949158;71;20442;-76
2021/06/30 09:39:28;;;;;;;;;;;30.70;91.20;;;;;;1924552;72;20195;-75
2021/06/30 09:42:02;;;;;;;;;;;30.70;91.30;;;;;;1892821;74;20213;-74
2021/06/30 09:44:32;;;;;;;;;;;30.80;90.90;;;;;;1895000;74;20167;-77
2021/06/30 09:47:02;;;;;;;;;;;30.80;91.30;;;;;;1901624;74;20237;-75
2021/06/30 09:49:36;;;;;;;;;;;30.80;91.00;;;;;;1898447;73;20274;-76
2021/06/30 09:52:08;;;;;;;;;;;30.80;91.30;;;;;;1905131;73;20134;-76
2021/06/30 09:54:39;;;;;;;;;;;30.80;91.20;;;;;;1913903;72;20410;-76
2021/06/30 09:57:10;;;;;;;;;;;30.80;90.90;;;;;;1909688;74;20258;-77
2021/06/30 09:59:41;;;;;;;;;;;30.80;90.70;;;;;;1917104;73;20176;-76
2021/06/30 10:02:12;;;;;;;;;;;30.80;91.10;;;;;;1912285;73;20171;-75
2021/06/30 10:04:43;;;;;;;;;;;30.90;91.30;;;;;;1910704;74;20185;-75
2021/06/30 10:07:14;;;;;;;;;;;30.80;91.00;;;;;;1906324;73;20156;-75
2021/06/30 10:09:45;;;;;;;;;;;30.90;90.90;;;;;;1910143;73;20115;-75
2021/06/30 10:12:18;;;;;;;;;;;30.90;90.80;;;;;;1905537;74;20413;-76
2021/06/30 10:14:51;;;;;;;;;;;30.90;90.80;;;;;;1915034;73;20150;-76
2021/06/30 10:17:23;;;;;;;;;;;31.00;90.90;;;;;;1910251;73;20218;-77
2021/06/30 10:19:54;;;;;;;;;;;31.00;90.90;;;;;;1920118;73;20512;-77
2021/06/30 10:22:24;;;;;;;;;;;31.00;90.90;;;;;;1915610;73;20130;-77
2021/06/30 10:24:55;;;;;;;;;;;31.00;91.00;;;;;;1915079;73;20149;-76
2021/06/30 10:27:25;;;;;;;;;;;31.00;90.80;;;;;;1912034;73;20262;-77
2021/06/30 10:29:56;;;;;;;;;;;31.00;90.60;;;;;;1908560;73;20205;-77
2021/06/30 10:32:27;;;;;;;;;;;31.10;90.70;;;;;;1928601;73;20251;-77
2021/06/30 10:35:00;;;;;;;;;;;31.10;90.60;;;;;;1926490;73;20596;-77
2021/06/30 10:37:31;;;;;;;;;;;31.00;90.80;;;;;;1888827;74;20353;-77
2021/06/30 10:40:02;;;;;;;;;;;31.10;90.80;;;;;;1912498;73;20210;-77
2021/06/30 10:42:37;;;;;;;;;;;31.00;90.60;;;;;;1934043;73;20195;-75
2021/06/30 10:45:09;;;;;;;;;;;31.10;90.90;;;;;;1919009;73;20400;-76
2021/06/30 10:47:45;;;;;;;;;;;31.10;91.00;;;;;;1920797;71;20214;-75
2021/06/30 10:50:24;;;;;;;;;;;31.00;90.80;;;;;;1933110;72;20184;-75
2021/06/30 10:52:51;;;;;;;;;;;31.00;90.80;;;;;;1909629;73;20218;-76
2021/06/30 10:55:22;;;;;;;;;;;31.10;91.10;;;;;;1934617;73;20205;-77
2021/06/30 10:57:53;;;;;;;;;;;31.10;91.20;;;;;;1935245;72;20183;-76
2021/06/30 11:00:23;;;;;;;;;;;31.00;91.30;;;;;;1924266;73;20145;-77
2021/06/30 11:02:53;;;;;;;;;;;31.00;91.20;;;;;;1925877;71;20212;-76
2021/06/30 11:05:25;;;;;;;;;;;31.00;91.30;;;;;;1921307;73;20172;-76
2021/06/30 11:07:54;;;;;;;;;;;31.00;91.50;;;;;;1870297;74;20206;-76
2021/06/30 11:10:25;;;;;;;;;;;31.00;91.30;;;;;;1878460;74;20916;-76
2021/06/30 11:12:56;;;;;;;;;;;31.00;91.40;;;;;;1853360;75;20203;-76
2021/06/30 11:15:27;;;;;;;;;;;30.90;91.50;;;;;;1932988;72;20317;-75
2021/06/30 11:17:58;;;;;;;;;;;30.90;91.60;;;;;;1914333;73;20222;-75
2021/06/30 11:20:29;;;;;;;;;;;30.90;92.00;;;;;;1917603;73;20193;-75
2021/06/30 11:23:00;;;;;;;;;;;30.90;92.50;;;;;;1924586;71;20116;-76
2021/06/30 11:25:29;;;;;;;;;;;30.90;92.30;;;;;;1922926;73;20113;-75
2021/06/30 11:27:59;;;;;;;;;;;30.90;92.20;;;;;;1934914;73;20588;-76
2021/06/30 11:30:29;;;;;;;;;;;30.90;93.10;;;;;;1920889;73;20202;-76
2021/06/30 11:32:59;;;;;;;;;;;30.90;93.20;;;;;;1921831;73;20207;-76
2021/06/30 11:35:32;;;;;;;;;;;30.90;92.80;;;;;;1921000;73;20227;-75
2021/06/30 11:38:03;;;;;;;;;;;30.80;92.70;;;;;;1906482;73;20371;-76
2021/06/30 11:40:38;;;;;;;;;;;30.80;92.50;;;;;;1907993;74;20255;-74
2021/06/30 11:43:05;;;;;;;;;;;30.80;92.40;;;;;;1903085;74;20198;-75
2021/06/30 11:45:35;;;;;;;;;;;30.80;92.50;;;;;;1904361;74;20184;-76
2021/06/30 11:48:06;;;;;;;;;;;30.80;92.50;;;;;;1931103;73;20233;-88
2021/06/30 11:50:36;;;;;;;;;;;30.80;91.60;;;;;;1930559;73;20159;-86
2021/06/30 11:53:06;;;;;;;;;;;30.80;88.20;;;;;;1907909;72;20183;-88
2021/06/30 11:55:38;;;;;;;;;;;30.80;86.80;;;;;;1909409;73;20178;-87
2021/06/30 11:58:08;;;;;;;;;;;30.80;87.10;;;;;;1922762;74;20563;-87
2021/06/30 12:00:39;;;;;;;;;;;30.80;85.90;;;;;;1884192;74;20220;-87
2021/06/30 12:03:09;;;;;;;;;;;30.90;83.60;;;;;;1905247;73;20263;-89
2021/06/30 12:05:40;;;;;;;;;;;30.90;84.00;;;;;;1865234;74;20195;-87
2021/06/30 12:08:09;;;;;;;;;;;30.90;81.80;;;;;;1898632;74;20182;-87
2021/06/30 12:10:40;;;;;;;;;;;30.90;82.10;;;;;;1847187;75;20527;-87
2021/06/30 12:13:12;;;;;;;;;;;30.90;80.10;;;;;;1930372;72;20177;-88
2021/06/30 12:15:43;;;;;;;;;;;30.90;79.00;;;;;;1931296;72;20195;-89
2021/06/30 12:18:14;;;;;;;;;;;30.90;79.20;;;;;;1929204;73;20143;-87
2021/06/30 12:20:45;;;;;;;;;;;31.00;79.20;;;;;;1871939;74;20229;-86
2021/06/30 12:23:18;;;;;;;;;;;31.00;80.10;;;;;;1870955;75;20120;-86
2021/06/30 12:25:50;;;;;;;;;;;31.00;79.50;;;;;;1867120;75;20189;-87
2021/06/30 12:28:27;;;;;;;;;;;31.00;79.90;;;;;;1902272;73;20511;-87
2021/06/30 12:31:04;;;;;;;;;;;30.90;80.40;;;;;;1903263;74;20202;-87
2021/06/30 12:33:35;;;;;;;;;;;30.90;80.60;;;;;;1904914;74;20245;-88
2021/06/30 12:36:05;;;;;;;;;;;30.80;81.20;;;;;;1921531;73;20244;-88
2021/06/30 12:38:34;;;;;;;;;;;30.80;81.40;;;;;;1913005;73;20193;-88
2021/06/30 12:41:05;;;;;;;;;;;30.60;82.00;;;;;;1875555;75;20168;-90
2021/06/30 12:43:38;;;;;;;;;;;30.60;82.50;;;;;;1883308;74;20197;-89
2021/06/30 12:46:09;;;;;;;;;;;30.50;82.80;;;;;;1853814;76;20164;-88
2021/06/30 12:48:41;;;;;;;;;;;30.40;82.90;;;;;;1863789;76;20511;-87
2021/06/30 12:51:12;;;;;;;;;;;30.40;83.50;;;;;;1888522;74;20114;-89
2021/06/30 12:53:44;;;;;;;;;;;30.30;83.70;;;;;;1897603;74;20146;-86
2021/06/30 12:56:21;;;;;;;;;;;30.20;84.00;;;;;;1866041;76;20116;-87
2021/06/30 12:58:50;;;;;;;;;;;30.10;84.00;;;;;;1919048;72;20155;-89
2021/06/30 13:01:20;;;;;;;;;;;30.10;84.20;;;;;;1931036;73;20289;-88
2021/06/30 13:03:54;;;;;;;;;;;30.10;84.50;;;;;;1897423;74;20226;-88
2021/06/30 13:06:24;;;;;;;;;;;30.00;84.30;;;;;;1877125;73;20265;-88
2021/06/30 13:08:55;;;;;;;;;;;30.00;84.40;;;;;;1877528;74;20187;-87
2021/06/30 13:11:25;;;;;;;;;;;29.90;84.60;;;;;;1881033;74;20248;-88
2021/06/30 13:13:56;;;;;;;;;;;29.90;84.60;;;;;;1899064;73;20125;-87
2021/06/30 13:16:27;;;;;;;;;;;29.90;84.70;;;;;;1872711;76;20250;-87
2021/06/30 13:18:59;;;;;;;;;;;29.90;84.80;;;;;;1862358;76;20206;-88
2021/06/30 13:21:34;;;;;;;;;;;29.90;84.30;;;;;;1852271;76;20249;-86
2021/06/30 13:24:06;;;;;;;;;;;29.80;84.40;;;;;;1862139;74;20492;-87
2021/06/30 13:27:01;;;;;;;;;;;29.80;84.50;;;;;;1848881;76;20119;-87
2021/06/30 13:34:25;;;;;;;;;;;29.80;84.90;;;;;;1909333;73;20463;-87
2021/06/30 13:36:58;;;;;;;;;;;29.80;85.10;;;;;;1914407;73;20187;-87
2021/06/30 13:39:25;;;;;;;;;;;29.80;85.30;;;;;;1911557;73;20120;-88
2021/06/30 13:42:04;;;;;;;;;;;29.70;85.60;;;;;;1881423;73;20264;-88
2021/06/30 13:45:05;;;;;;;;;;;;;;;;;;;;;
2021/06/30 13:47:28;;;;;;;;;;;;;;;;;;;;;
2021/06/30 13:50:15;;;;;;;;;;;29.70;87.90;;;;;;1759932;78;20166;-89
2021/06/30 13:52:52;;;;;;;;;;;29.60;88.50;;;;;;1864715;76;20179;-87
2021/06/30 13:55:33;;;;;;;;;;;29.60;89.00;;;;;;1899231;74;20179;-87
2021/06/30 13:58:22;;;;;;;;;;;29.60;89.00;;;;;;1904562;74;20205;-87
2021/06/30 14:01:21;;;;;;;;;;;29.50;89.60;;;;;;1870220;74;20180;-87
2021/06/30 14:04:26;;;;;;;;;;;;;;;;;;;;;
2021/06/30 14:09:24;;;;;;;;;;;29.40;90.20;;;;;;1813606;75;20467;-87
2021/06/30 14:10:10;;;;;;;;;;;29.30;90.30;;;;;;1773687;76;20164;-87
2021/06/30 14:12:45;;;;;;;;;;;29.30;90.60;;;;;;1873393;75;20172;-87
2021/06/30 14:15:17;;;;;;;;;;;29.20;90.80;;;;;;1789209;76;20493;-88
2021/06/30 14:17:46;;;;;;;;;;;29.20;90.70;;;;;;1856630;76;20385;-87
2021/06/30 14:20:19;;;;;;;;;;;29.10;90.50;;;;;;1893274;75;20274;-88
2021/06/30 14:23:12;;;;;;;;;;;29.20;90.50;;;;;;1866205;73;20323;-88
2021/06/30 14:28:14;;;;;;;;;;;29.20;90.90;;;;;;1864799;74;20242;-87
2021/06/30 14:30:55;;;;;;;;;;;29.30;91.00;;;;;;1889343;75;20209;-87
2021/06/30 14:33:16;;;;;;;;;;;29.30;91.10;;;;;;1921928;72;20255;-86
2021/06/30 14:35:46;;;;;;;;;;;29.30;91.20;;;;;;1893764;73;20287;-88
2021/06/30 14:38:20;;;;;;;;;;;29.30;91.10;;;;;;1924785;72;20239;-87
2021/06/30 14:40:56;;;;;;;;;;;29.30;91.30;;;;;;1907174;73;20178;-88
2021/06/30 14:43:33;;;;;;;;;;;29.20;91.20;;;;;;1880420;74;20274;-87
2021/06/30 14:46:06;;;;;;;;;;;29.20;91.50;;;;;;1896330;73;20158;-88
2021/06/30 14:48:52;;;;;;;;;;;29.10;91.70;;;;;;1881090;75;20230;-87
2021/06/30 14:51:15;;;;;;;;;;;29.10;91.70;;;;;;1851941;76;20211;-88
2021/06/30 14:53:47;;;;;;;;;;;29.10;92.00;;;;;;1916006;73;20120;-88
2021/06/30 15:02:13;;;;;;;;;;;29.00;92.30;;;;;;1925657;71;20132;-87
2021/06/30 15:04:43;;;;;;;;;;;28.90;92.40;;;;;;1911707;73;20296;-87